Aérodrome :
LOGIN :

S'inscrire | Disclaimer

   EN    FR    IT 

 










Légende :    VFR   VFR Marginal   IFR   IFR Intensif   IFR Très Intensif
Visi : 
Plafond : 
>= 8 km
>= 3000ft
5 à 8 km
1000 à 3000 ft
1500m à 5 km
500 à 1000 ft
800 à 1500m
200 à 500 ft
< 800m
< 200 ft
Symboles :   Orages  Brouillard  Fortes neiges  Fortes précipitations  Vent > 20 kt
SIGMETs :   Divers  Orages  Givrage  Turbulence  Onde Orograph.  Cendres Volcan.







- Altitude de l'aérodrome : 465 ft
- Code IATA : OMR


LROD - Oradea International

DERNIER METAR :
  • 220000Z AUTO 10003KT 1000 R19/0900V1500U FZFG OVC003/// M03/M03 Q1019

METARs EXPIRÉS :
  • 212330Z AUTO 10004KT 0600 R19/0700N FZFG BKN003/// M03/M03 Q1019
  • 212300Z AUTO 12003KT 090V150 0250 R19/0300N FZFG VV001 M03/M03 Q1020
  • 212230Z AUTO 11003KT 0300 R19/0350N FZFG BKN001/// BKN003/// M02/M02 Q1020
  • 212200Z AUTO VRB01KT 0200 R19/0250N FZFG VV001 M03/M03 Q1020
  • 212130Z AUTO 00000KT 0200 R19/0200N FZFG BKN001/// M03/M03 Q1020

TAF TAF LROD
Valide du 21 à 18h jusqu'au 22 à 03h UTC


211700Z 2118/2203 VRB04KT 3000 BR NSC
TEMPO 2120/2203 1500 BR BKN005
Pas de NOTAMs connus pour ce terrain.



MET'MAP, la Météo Aéronautique d'un coup d'oeil ! - Copyright ORBIFLY Décembre 2007 - Disclaimer

ORBIFLY MET'MAP TEAM :

Programmation & Développement : Alexandra Zaïnal
Conception & Développement : Baudouin d'Aumeries
Co-Programmation & Développement : Marc-Olivier Méhu
Soutien technique & logistique : Manuel Goepfert

Contact : metmap@orbifly.com




SOURCES & CREDITS :

   NOAA